sensor_id;sensor_type;location;lat;lon;timestamp;temperature;humidity
59660;DHT22;45534;52.690;6.268;2024-01-25T00:01:08;7.50;99.90
59660;DHT22;45534;52.690;6.268;2024-01-25T00:03:34;7.40;99.90
59660;DHT22;45534;52.690;6.268;2024-01-25T00:05:59;7.40;99.90
59660;DHT22;45534;52.690;6.268;2024-01-25T00:08:25;7.40;99.90
59660;DHT22;45534;52.690;6.268;2024-01-25T00:10:51;7.40;99.90
59660;DHT22;45534;52.690;6.268;2024-01-25T00:13:17;7.30;99.90
59660;DHT22;45534;52.690;6.268;2024-01-25T00:15:42;7.30;99.90
59660;DHT22;45534;52.690;6.268;2024-01-25T00:18:08;7.20;99.90
59660;DHT22;45534;52.690;6.268;2024-01-25T00:20:34;7.20;99.90
59660;DHT22;45534;52.690;6.268;2024-01-25T00:22:59;7.10;99.90
59660;DHT22;45534;52.690;6.268;2024-01-25T00:25:25;7.10;99.90
59660;DHT22;45534;52.690;6.268;2024-01-25T00:27:51;7.10;99.90
59660;DHT22;45534;52.690;6.268;2024-01-25T00:30:17;7.10;99.90
59660;DHT22;45534;52.690;6.268;2024-01-25T00:32:43;7.00;99.90
59660;DHT22;45534;52.690;6.268;2024-01-25T00:35:09;7.00;99.90
59660;DHT22;45534;52.690;6.268;2024-01-25T00:37:36;7.00;99.90
59660;DHT22;45534;52.690;6.268;2024-01-25T00:40:03;6.90;99.90
59660;DHT22;45534;52.690;6.268;2024-01-25T00:42:30;6.90;99.90
59660;DHT22;45534;52.690;6.268;2024-01-25T00:44:56;6.90;99.90
59660;DHT22;45534;52.690;6.268;2024-01-25T00:47:22;6.90;99.90
59660;DHT22;45534;52.690;6.268;2024-01-25T00:49:48;6.90;99.90
59660;DHT22;45534;52.690;6.268;2024-01-25T00:52:14;6.80;99.90
59660;DHT22;45534;52.690;6.268;2024-01-25T00:54:40;6.80;99.90
59660;DHT22;45534;52.690;6.268;2024-01-25T00:57:06;6.80;99.90
59660;DHT22;45534;52.690;6.268;2024-01-25T00:59:32;6.70;99.90
59660;DHT22;45534;52.690;6.268;2024-01-25T01:02:01;6.70;99.90
59660;DHT22;45534;52.690;6.268;2024-01-25T01:04:29;6.70;99.90
59660;DHT22;45534;52.690;6.268;2024-01-25T01:06:55;6.70;99.90
59660;DHT22;45534;52.690;6.268;2024-01-25T01:09:20;6.70;99.90
59660;DHT22;45534;52.690;6.268;2024-01-25T01:11:46;6.70;99.90
59660;DHT22;45534;52.690;6.268;2024-01-25T01:14:12;6.60;99.90
59660;DHT22;45534;52.690;6.268;2024-01-25T01:16:38;6.60;99.90
59660;DHT22;45534;52.690;6.268;2024-01-25T01:19:03;6.60;99.90
59660;DHT22;45534;52.690;6.268;2024-01-25T01:21:33;6.60;99.90
59660;DHT22;45534;52.690;6.268;2024-01-25T01:24:00;6.70;99.90
59660;DHT22;45534;52.690;6.268;2024-01-25T01:26:25;6.70;99.90
59660;DHT22;45534;52.690;6.268;2024-01-25T01:28:51;6.70;99.90
59660;DHT22;45534;52.690;6.268;2024-01-25T01:31:16;6.70;99.90
59660;DHT22;45534;52.690;6.268;2024-01-25T01:33:42;6.70;99.90
59660;DHT22;45534;52.690;6.268;2024-01-25T01:36:08;6.70;99.90
59660;DHT22;45534;52.690;6.268;2024-01-25T01:38:34;6.60;99.90
59660;DHT22;45534;52.690;6.268;2024-01-25T01:40:59;6.60;99.90
59660;DHT22;45534;52.690;6.268;2024-01-25T01:43:25;6.60;99.90
59660;DHT22;45534;52.690;6.268;2024-01-25T01:45:50;6.60;99.90
59660;DHT22;45534;52.690;6.268;2024-01-25T01:48:16;6.60;99.90
59660;DHT22;45534;52.690;6.268;2024-01-25T01:50:43;6.50;99.90
59660;DHT22;45534;52.690;6.268;2024-01-25T01:53:10;6.50;99.90
59660;DHT22;45534;52.690;6.268;2024-01-25T01:55:37;6.50;99.90
59660;DHT22;45534;52.690;6.268;2024-01-25T01:58:03;6.50;99.90
59660;DHT22;45534;52.690;6.268;2024-01-25T02:00:30;6.40;99.90
59660;DHT22;45534;52.690;6.268;2024-01-25T02:02:56;6.40;99.90
59660;DHT22;45534;52.690;6.268;2024-01-25T02:05:23;6.40;99.90
59660;DHT22;45534;52.690;6.268;2024-01-25T02:07:49;6.40;99.90
59660;DHT22;45534;52.690;6.268;2024-01-25T02:10:15;6.40;99.90
59660;DHT22;45534;52.690;6.268;2024-01-25T02:12:41;6.40;99.90
59660;DHT22;45534;52.690;6.268;2024-01-25T02:15:07;6.40;99.90
59660;DHT22;45534;52.690;6.268;2024-01-25T02:17:33;6.40;99.90
59660;DHT22;45534;52.690;6.268;2024-01-25T02:19:59;6.40;99.90
59660;DHT22;45534;52.690;6.268;2024-01-25T02:22:26;6.40;99.90
59660;DHT22;45534;52.690;6.268;2024-01-25T02:24:51;6.40;99.90
59660;DHT22;45534;52.690;6.268;2024-01-25T02:27:17;6.40;99.90
59660;DHT22;45534;52.690;6.268;2024-01-25T02:29:43;6.40;99.90
59660;DHT22;45534;52.690;6.268;2024-01-25T02:32:08;6.40;99.90
59660;DHT22;45534;52.690;6.268;2024-01-25T02:34:34;6.40;99.90
59660;DHT22;45534;52.690;6.268;2024-01-25T02:37:00;6.40;99.90
59660;DHT22;45534;52.690;6.268;2024-01-25T02:39:25;6.40;99.90
59660;DHT22;45534;52.690;6.268;2024-01-25T02:41:51;6.30;99.90
59660;DHT22;45534;52.690;6.268;2024-01-25T02:44:17;6.30;99.90
59660;DHT22;45534;52.690;6.268;2024-01-25T02:46:43;6.30;99.90
59660;DHT22;45534;52.690;6.268;2024-01-25T02:49:10;6.30;99.90
59660;DHT22;45534;52.690;6.268;2024-01-25T02:51:36;6.30;99.90
59660;DHT22;45534;52.690;6.268;2024-01-25T02:54:01;6.30;99.90
59660;DHT22;45534;52.690;6.268;2024-01-25T02:56:28;6.20;99.90
59660;DHT22;45534;52.690;6.268;2024-01-25T02:59:00;6.20;99.90
59660;DHT22;45534;52.690;6.268;2024-01-25T03:01:25;6.20;99.90
59660;DHT22;45534;52.690;6.268;2024-01-25T03:03:51;6.10;99.90
59660;DHT22;45534;52.690;6.268;2024-01-25T03:06:17;6.10;99.90
59660;DHT22;45534;52.690;6.268;2024-01-25T03:08:42;6.10;99.90
59660;DHT22;45534;52.690;6.268;2024-01-25T03:11:08;6.10;99.90
59660;DHT22;45534;52.690;6.268;2024-01-25T03:13:34;6.10;99.90
59660;DHT22;45534;52.690;6.268;2024-01-25T03:16:00;6.10;99.90
59660;DHT22;45534;52.690;6.268;2024-01-25T03:18:25;6.00;99.90
59660;DHT22;45534;52.690;6.268;2024-01-25T03:20:51;6.00;99.90
59660;DHT22;45534;52.690;6.268;2024-01-25T03:23:17;6.10;99.90
59660;DHT22;45534;52.690;6.268;2024-01-25T03:25:43;6.00;99.90
59660;DHT22;45534;52.690;6.268;2024-01-25T03:28:08;6.00;99.90
59660;DHT22;45534;52.690;6.268;2024-01-25T03:30:35;6.00;99.90
59660;DHT22;45534;52.690;6.268;2024-01-25T03:33:01;6.00;99.90
59660;DHT22;45534;52.690;6.268;2024-01-25T03:35:26;6.00;99.90
59660;DHT22;45534;52.690;6.268;2024-01-25T03:37:52;6.00;99.90
59660;DHT22;45534;52.690;6.268;2024-01-25T03:40:18;5.90;99.90
59660;DHT22;45534;52.690;6.268;2024-01-25T03:42:43;5.90;99.90
59660;DHT22;45534;52.690;6.268;2024-01-25T03:45:09;5.90;99.90
59660;DHT22;45534;52.690;6.268;2024-01-25T03:47:35;5.90;99.90
59660;DHT22;45534;52.690;6.268;2024-01-25T03:50:00;5.90;99.90
59660;DHT22;45534;52.690;6.268;2024-01-25T03:52:26;5.80;99.90
59660;DHT22;45534;52.690;6.268;2024-01-25T03:54:55;5.80;99.90
59660;DHT22;45534;52.690;6.268;2024-01-25T03:57:21;5.80;99.90
59660;DHT22;45534;52.690;6.268;2024-01-25T03:59:47;5.80;99.90
59660;DHT22;45534;52.690;6.268;2024-01-25T04:02:12;5.70;99.90
59660;DHT22;45534;52.690;6.268;2024-01-25T04:04:38;5.70;99.90
59660;DHT22;45534;52.690;6.268;2024-01-25T04:07:04;5.70;99.90
59660;DHT22;45534;52.690;6.268;2024-01-25T04:09:29;5.70;99.90
59660;DHT22;45534;52.690;6.268;2024-01-25T04:11:55;5.70;99.90
59660;DHT22;45534;52.690;6.268;2024-01-25T04:14:21;5.60;99.90
59660;DHT22;45534;52.690;6.268;2024-01-25T04:16:47;5.60;99.90
59660;DHT22;45534;52.690;6.268;2024-01-25T04:19:13;5.60;99.90
59660;DHT22;45534;52.690;6.268;2024-01-25T04:21:38;5.60;99.90
59660;DHT22;45534;52.690;6.268;2024-01-25T04:24:04;5.60;99.90
59660;DHT22;45534;52.690;6.268;2024-01-25T04:26:30;5.60;99.90
59660;DHT22;45534;52.690;6.268;2024-01-25T04:28:56;5.60;99.90
59660;DHT22;45534;52.690;6.268;2024-01-25T04:31:21;5.50;99.90
59660;DHT22;45534;52.690;6.268;2024-01-25T04:33:47;5.50;99.90
59660;DHT22;45534;52.690;6.268;2024-01-25T04:36:13;5.50;99.90
59660;DHT22;45534;52.690;6.268;2024-01-25T04:38:39;5.50;99.90
59660;DHT22;45534;52.690;6.268;2024-01-25T04:41:04;5.50;99.90
59660;DHT22;45534;52.690;6.268;2024-01-25T04:43:34;5.40;99.90
59660;DHT22;45534;52.690;6.268;2024-01-25T04:46:02;5.50;99.90
59660;DHT22;45534;52.690;6.268;2024-01-25T04:48:28;5.40;99.90
59660;DHT22;45534;52.690;6.268;2024-01-25T04:50:56;5.40;99.90
59660;DHT22;45534;52.690;6.268;2024-01-25T04:53:22;5.40;99.90
59660;DHT22;45534;52.690;6.268;2024-01-25T04:55:48;5.40;99.90
59660;DHT22;45534;52.690;6.268;2024-01-25T04:58:14;5.40;99.90
59660;DHT22;45534;52.690;6.268;2024-01-25T05:00:39;5.40;99.90
59660;DHT22;45534;52.690;6.268;2024-01-25T05:03:05;5.40;99.90
59660;DHT22;45534;52.690;6.268;2024-01-25T05:05:31;5.30;99.90
59660;DHT22;45534;52.690;6.268;2024-01-25T05:07:57;5.30;99.90
59660;DHT22;45534;52.690;6.268;2024-01-25T05:10:22;5.30;99.90
59660;DHT22;45534;52.690;6.268;2024-01-25T05:12:48;5.30;99.90
59660;DHT22;45534;52.690;6.268;2024-01-25T05:15:14;5.30;99.90
59660;DHT22;45534;52.690;6.268;2024-01-25T05:17:40;5.20;99.90
59660;DHT22;45534;52.690;6.268;2024-01-25T05:20:06;5.20;99.90
59660;DHT22;45534;52.690;6.268;2024-01-25T05:22:32;5.10;99.90
59660;DHT22;45534;52.690;6.268;2024-01-25T05:24:57;5.00;99.90
59660;DHT22;45534;52.690;6.268;2024-01-25T05:27:24;4.90;99.90
59660;DHT22;45534;52.690;6.268;2024-01-25T05:29:50;4.80;99.90
59660;DHT22;45534;52.690;6.268;2024-01-25T05:32:15;4.70;99.90
59660;DHT22;45534;52.690;6.268;2024-01-25T05:34:41;4.60;99.90
59660;DHT22;45534;52.690;6.268;2024-01-25T05:37:07;4.60;99.90
59660;DHT22;45534;52.690;6.268;2024-01-25T05:39:32;4.50;99.90
59660;DHT22;45534;52.690;6.268;2024-01-25T05:41:58;4.40;99.90
59660;DHT22;45534;52.690;6.268;2024-01-25T05:44:24;4.40;99.90
59660;DHT22;45534;52.690;6.268;2024-01-25T05:46:49;4.40;99.90
59660;DHT22;45534;52.690;6.268;2024-01-25T05:49:15;4.30;99.90
59660;DHT22;45534;52.690;6.268;2024-01-25T05:51:41;4.30;99.90
59660;DHT22;45534;52.690;6.268;2024-01-25T05:54:06;4.20;99.90
59660;DHT22;45534;52.690;6.268;2024-01-25T05:56:32;4.20;99.90
59660;DHT22;45534;52.690;6.268;2024-01-25T05:58:58;4.20;99.90
59660;DHT22;45534;52.690;6.268;2024-01-25T06:01:23;4.20;99.90
59660;DHT22;45534;52.690;6.268;2024-01-25T06:03:50;4.20;99.90
59660;DHT22;45534;52.690;6.268;2024-01-25T06:06:15;4.20;99.90
59660;DHT22;45534;52.690;6.268;2024-01-25T06:08:41;4.20;99.90
59660;DHT22;45534;52.690;6.268;2024-01-25T06:11:07;4.20;99.90
59660;DHT22;45534;52.690;6.268;2024-01-25T06:13:34;4.20;99.90
59660;DHT22;45534;52.690;6.268;2024-01-25T06:15:59;4.20;99.90
59660;DHT22;45534;52.690;6.268;2024-01-25T06:18:26;4.20;99.90
59660;DHT22;45534;52.690;6.268;2024-01-25T06:20:52;4.20;99.90
59660;DHT22;45534;52.690;6.268;2024-01-25T06:23:17;4.20;99.90
59660;DHT22;45534;52.690;6.268;2024-01-25T06:25:43;4.10;99.90
59660;DHT22;45534;52.690;6.268;2024-01-25T06:28:09;4.10;99.90
59660;DHT22;45534;52.690;6.268;2024-01-25T06:30:34;4.10;99.90
59660;DHT22;45534;52.690;6.268;2024-01-25T06:33:00;4.10;99.90
59660;DHT22;45534;52.690;6.268;2024-01-25T06:35:26;4.10;99.90
59660;DHT22;45534;52.690;6.268;2024-01-25T06:37:51;4.00;99.90
59660;DHT22;45534;52.690;6.268;2024-01-25T06:40:17;4.00;99.90
59660;DHT22;45534;52.690;6.268;2024-01-25T06:42:43;3.90;99.90
59660;DHT22;45534;52.690;6.268;2024-01-25T06:45:10;3.90;99.90
59660;DHT22;45534;52.690;6.268;2024-01-25T06:47:36;3.90;99.90
59660;DHT22;45534;52.690;6.268;2024-01-25T06:50:01;3.90;99.90
59660;DHT22;45534;52.690;6.268;2024-01-25T06:52:27;3.90;99.90
59660;DHT22;45534;52.690;6.268;2024-01-25T06:54:54;3.90;99.90
59660;DHT22;45534;52.690;6.268;2024-01-25T06:57:19;3.90;99.90
59660;DHT22;45534;52.690;6.268;2024-01-25T06:59:45;3.90;99.90
59660;DHT22;45534;52.690;6.268;2024-01-25T07:02:11;3.90;99.90
59660;DHT22;45534;52.690;6.268;2024-01-25T07:04:37;3.90;99.90
59660;DHT22;45534;52.690;6.268;2024-01-25T07:07:06;3.90;99.90
59660;DHT22;45534;52.690;6.268;2024-01-25T07:09:31;3.90;99.90
59660;DHT22;45534;52.690;6.268;2024-01-25T07:11:57;3.90;99.90
59660;DHT22;45534;52.690;6.268;2024-01-25T07:14:23;3.90;99.90
59660;DHT22;45534;52.690;6.268;2024-01-25T07:16:48;3.90;99.90
59660;DHT22;45534;52.690;6.268;2024-01-25T07:19:14;3.90;99.90
59660;DHT22;45534;52.690;6.268;2024-01-25T07:21:40;3.90;99.90
59660;DHT22;45534;52.690;6.268;2024-01-25T07:24:06;3.90;99.90
59660;DHT22;45534;52.690;6.268;2024-01-25T07:26:31;3.80;99.90
59660;DHT22;45534;52.690;6.268;2024-01-25T07:28:57;3.80;99.90
59660;DHT22;45534;52.690;6.268;2024-01-25T07:31:26;3.90;99.90
59660;DHT22;45534;52.690;6.268;2024-01-25T07:33:53;3.90;99.90
59660;DHT22;45534;52.690;6.268;2024-01-25T07:36:19;3.90;99.90
59660;DHT22;45534;52.690;6.268;2024-01-25T07:38:45;3.80;99.90
59660;DHT22;45534;52.690;6.268;2024-01-25T07:41:13;3.80;99.90
59660;DHT22;45534;52.690;6.268;2024-01-25T07:43:38;3.80;99.90
59660;DHT22;45534;52.690;6.268;2024-01-25T07:46:04;3.80;99.90
59660;DHT22;45534;52.690;6.268;2024-01-25T07:48:30;3.80;99.90
59660;DHT22;45534;52.690;6.268;2024-01-25T07:50:56;3.80;99.90
59660;DHT22;45534;52.690;6.268;2024-01-25T07:53:22;3.80;99.90
59660;DHT22;45534;52.690;6.268;2024-01-25T07:55:48;3.80;99.90
59660;DHT22;45534;52.690;6.268;2024-01-25T07:58:15;3.90;99.90
59660;DHT22;45534;52.690;6.268;2024-01-25T08:00:41;3.90;99.90
59660;DHT22;45534;52.690;6.268;2024-01-25T08:03:08;4.00;99.90
59660;DHT22;45534;52.690;6.268;2024-01-25T08:05:33;4.00;99.90
59660;DHT22;45534;52.690;6.268;2024-01-25T08:07:59;4.00;99.90
59660;DHT22;45534;52.690;6.268;2024-01-25T08:10:25;4.10;99.90
59660;DHT22;45534;52.690;6.268;2024-01-25T08:12:51;4.00;99.90
59660;DHT22;45534;52.690;6.268;2024-01-25T08:15:16;4.10;99.90
59660;DHT22;45534;52.690;6.268;2024-01-25T08:17:42;4.10;99.90
59660;DHT22;45534;52.690;6.268;2024-01-25T08:20:09;4.10;99.90
59660;DHT22;45534;52.690;6.268;2024-01-25T08:22:36;4.10;99.90
59660;DHT22;45534;52.690;6.268;2024-01-25T08:25:01;4.10;99.90
59660;DHT22;45534;52.690;6.268;2024-01-25T08:27:27;4.10;99.90
59660;DHT22;45534;52.690;6.268;2024-01-25T08:29:53;4.10;99.90
59660;DHT22;45534;52.690;6.268;2024-01-25T08:32:18;4.10;99.90
59660;DHT22;45534;52.690;6.268;2024-01-25T08:34:44;4.10;99.90
59660;DHT22;45534;52.690;6.268;2024-01-25T08:37:10;4.10;99.90
59660;DHT22;45534;52.690;6.268;2024-01-25T08:39:36;4.10;99.90
59660;DHT22;45534;52.690;6.268;2024-01-25T08:42:01;4.10;99.90
59660;DHT22;45534;52.690;6.268;2024-01-25T08:44:29;4.10;99.90
59660;DHT22;45534;52.690;6.268;2024-01-25T08:46:54;4.10;99.90
59660;DHT22;45534;52.690;6.268;2024-01-25T08:49:20;4.20;99.90
59660;DHT22;45534;52.690;6.268;2024-01-25T08:51:46;4.20;99.90
59660;DHT22;45534;52.690;6.268;2024-01-25T08:54:11;4.20;99.90
59660;DHT22;45534;52.690;6.268;2024-01-25T08:56:37;4.20;99.90
59660;DHT22;45534;52.690;6.268;2024-01-25T08:59:03;4.30;99.90
59660;DHT22;45534;52.690;6.268;2024-01-25T09:01:28;4.30;99.90
59660;DHT22;45534;52.690;6.268;2024-01-25T09:03:54;4.30;99.90
59660;DHT22;45534;52.690;6.268;2024-01-25T09:06:20;4.40;99.90
59660;DHT22;45534;52.690;6.268;2024-01-25T09:08:45;4.40;99.90
59660;DHT22;45534;52.690;6.268;2024-01-25T09:11:11;4.50;99.90
59660;DHT22;45534;52.690;6.268;2024-01-25T09:13:37;4.50;99.90
59660;DHT22;45534;52.690;6.268;2024-01-25T09:16:02;4.60;99.90
59660;DHT22;45534;52.690;6.268;2024-01-25T09:18:28;4.60;99.90
59660;DHT22;45534;52.690;6.268;2024-01-25T09:20:54;4.70;99.90
59660;DHT22;45534;52.690;6.268;2024-01-25T09:23:19;4.70;99.90
59660;DHT22;45534;52.690;6.268;2024-01-25T09:25:45;4.80;99.90
59660;DHT22;45534;52.690;6.268;2024-01-25T09:28:12;4.90;99.90
59660;DHT22;45534;52.690;6.268;2024-01-25T09:30:38;4.90;99.90
59660;DHT22;45534;52.690;6.268;2024-01-25T09:33:06;5.00;99.90
59660;DHT22;45534;52.690;6.268;2024-01-25T09:35:31;5.10;99.90
59660;DHT22;45534;52.690;6.268;2024-01-25T09:37:57;5.10;99.90
59660;DHT22;45534;52.690;6.268;2024-01-25T09:40:23;5.20;99.90
59660;DHT22;45534;52.690;6.268;2024-01-25T09:42:49;5.30;99.90
59660;DHT22;45534;52.690;6.268;2024-01-25T09:45:18;5.30;99.90
59660;DHT22;45534;52.690;6.268;2024-01-25T09:47:45;5.40;99.90
59660;DHT22;45534;52.690;6.268;2024-01-25T09:50:10;5.50;99.90
59660;DHT22;45534;52.690;6.268;2024-01-25T09:52:38;5.50;99.90
59660;DHT22;45534;52.690;6.268;2024-01-25T09:55:06;5.60;99.90
59660;DHT22;45534;52.690;6.268;2024-01-25T09:57:35;5.60;99.90
59660;DHT22;45534;52.690;6.268;2024-01-25T10:00:03;5.60;99.90
59660;DHT22;45534;52.690;6.268;2024-01-25T10:02:29;5.60;99.90
59660;DHT22;45534;52.690;6.268;2024-01-25T10:04:54;5.60;99.90
59660;DHT22;45534;52.690;6.268;2024-01-25T10:07:40;5.70;99.90
59660;DHT22;45534;52.690;6.268;2024-01-25T10:10:06;5.80;99.90
59660;DHT22;45534;52.690;6.268;2024-01-25T10:12:32;5.80;99.90
59660;DHT22;45534;52.690;6.268;2024-01-25T10:14:58;5.90;99.90
59660;DHT22;45534;52.690;6.268;2024-01-25T10:17:25;5.90;99.90
59660;DHT22;45534;52.690;6.268;2024-01-25T10:19:51;6.00;99.90
59660;DHT22;45534;52.690;6.268;2024-01-25T10:22:16;6.00;99.90
59660;DHT22;45534;52.690;6.268;2024-01-25T10:24:42;6.10;99.90
59660;DHT22;45534;52.690;6.268;2024-01-25T10:27:08;6.20;99.90
59660;DHT22;45534;52.690;6.268;2024-01-25T10:29:37;6.20;99.90
59660;DHT22;45534;52.690;6.268;2024-01-25T10:32:03;6.30;99.90
59660;DHT22;45534;52.690;6.268;2024-01-25T10:34:30;6.40;99.90
59660;DHT22;45534;52.690;6.268;2024-01-25T10:36:57;6.50;99.90
59660;DHT22;45534;52.690;6.268;2024-01-25T10:39:24;6.60;99.90
59660;DHT22;45534;52.690;6.268;2024-01-25T10:41:50;6.60;99.90
59660;DHT22;45534;52.690;6.268;2024-01-25T10:44:19;6.60;99.90
59660;DHT22;45534;52.690;6.268;2024-01-25T10:46:48;6.70;99.90
59660;DHT22;45534;52.690;6.268;2024-01-25T10:49:14;6.80;99.90
59660;DHT22;45534;52.690;6.268;2024-01-25T10:51:41;6.80;99.90
59660;DHT22;45534;52.690;6.268;2024-01-25T10:54:11;6.80;99.90
59660;DHT22;45534;52.690;6.268;2024-01-25T10:56:46;6.90;99.90
59660;DHT22;45534;52.690;6.268;2024-01-25T10:59:16;6.80;99.90
59660;DHT22;45534;52.690;6.268;2024-01-25T11:01:45;6.90;99.90
59660;DHT22;45534;52.690;6.268;2024-01-25T11:04:18;6.80;99.90
59660;DHT22;45534;52.690;6.268;2024-01-25T11:06:47;6.90;99.90
59660;DHT22;45534;52.690;6.268;2024-01-25T11:09:20;6.90;99.90
59660;DHT22;45534;52.690;6.268;2024-01-25T11:11:49;6.90;99.90
59660;DHT22;45534;52.690;6.268;2024-01-25T11:14:15;6.90;99.90
59660;DHT22;45534;52.690;6.268;2024-01-25T11:16:43;7.10;99.90
59660;DHT22;45534;52.690;6.268;2024-01-25T11:19:20;7.30;99.90
59660;DHT22;45534;52.690;6.268;2024-01-25T11:21:51;7.60;99.90
59660;DHT22;45534;52.690;6.268;2024-01-25T11:24:25;7.70;99.90
59660;DHT22;45534;52.690;6.268;2024-01-25T11:26:53;7.70;99.90
59660;DHT22;45534;52.690;6.268;2024-01-25T11:29:21;7.60;99.90
59660;DHT22;45534;52.690;6.268;2024-01-25T11:31:49;7.70;99.90
59660;DHT22;45534;52.690;6.268;2024-01-25T11:34:16;7.70;99.90
59660;DHT22;45534;52.690;6.268;2024-01-25T11:36:44;7.80;99.90
59660;DHT22;45534;52.690;6.268;2024-01-25T11:39:10;7.90;99.90
59660;DHT22;45534;52.690;6.268;2024-01-25T11:41:37;8.10;99.90
59660;DHT22;45534;52.690;6.268;2024-01-25T11:44:03;8.30;99.90
59660;DHT22;45534;52.690;6.268;2024-01-25T11:46:30;8.50;99.90
59660;DHT22;45534;52.690;6.268;2024-01-25T11:48:58;8.60;99.90
59660;DHT22;45534;52.690;6.268;2024-01-25T11:51:24;8.70;99.90
59660;DHT22;45534;52.690;6.268;2024-01-25T11:53:49;8.70;99.90
59660;DHT22;45534;52.690;6.268;2024-01-25T11:56:20;8.60;99.90
59660;DHT22;45534;52.690;6.268;2024-01-25T11:58:47;8.50;99.90
59660;DHT22;45534;52.690;6.268;2024-01-25T12:01:13;8.50;99.90
59660;DHT22;45534;52.690;6.268;2024-01-25T12:03:40;8.50;99.90
59660;DHT22;45534;52.690;6.268;2024-01-25T12:06:06;8.50;99.90
59660;DHT22;45534;52.690;6.268;2024-01-25T12:08:34;8.50;99.90
59660;DHT22;45534;52.690;6.268;2024-01-25T12:11:09;8.40;99.90
59660;DHT22;45534;52.690;6.268;2024-01-25T12:13:35;8.30;99.90
59660;DHT22;45534;52.690;6.268;2024-01-25T12:16:02;8.30;99.90
59660;DHT22;45534;52.690;6.268;2024-01-25T12:18:29;8.30;99.90
59660;DHT22;45534;52.690;6.268;2024-01-25T12:21:01;8.30;99.90
59660;DHT22;45534;52.690;6.268;2024-01-25T12:23:37;8.40;99.90
59660;DHT22;45534;52.690;6.268;2024-01-25T12:26:05;8.50;99.90
59660;DHT22;45534;52.690;6.268;2024-01-25T12:28:31;8.60;99.90
59660;DHT22;45534;52.690;6.268;2024-01-25T12:31:00;8.90;99.90
59660;DHT22;45534;52.690;6.268;2024-01-25T12:33:27;9.30;99.90
59660;DHT22;45534;52.690;6.268;2024-01-25T12:35:53;9.50;99.90
59660;DHT22;45534;52.690;6.268;2024-01-25T12:38:25;9.70;99.90
59660;DHT22;45534;52.690;6.268;2024-01-25T12:40:51;9.90;99.90
59660;DHT22;45534;52.690;6.268;2024-01-25T12:43:18;10.10;99.90
59660;DHT22;45534;52.690;6.268;2024-01-25T12:45:44;10.50;99.90
59660;DHT22;45534;52.690;6.268;2024-01-25T12:48:11;10.90;99.90
59660;DHT22;45534;52.690;6.268;2024-01-25T12:50:37;11.20;99.90
59660;DHT22;45534;52.690;6.268;2024-01-25T12:53:03;11.30;99.90
59660;DHT22;45534;52.690;6.268;2024-01-25T12:55:30;11.40;99.90
59660;DHT22;45534;52.690;6.268;2024-01-25T12:57:57;11.50;99.90
59660;DHT22;45534;52.690;6.268;2024-01-25T13:00:23;11.70;99.90
59660;DHT22;45534;52.690;6.268;2024-01-25T13:02:48;11.80;99.90
59660;DHT22;45534;52.690;6.268;2024-01-25T13:05:14;11.90;99.90
59660;DHT22;45534;52.690;6.268;2024-01-25T13:07:40;11.80;99.90
59660;DHT22;45534;52.690;6.268;2024-01-25T13:10:08;11.60;99.90
59660;DHT22;45534;52.690;6.268;2024-01-25T13:12:34;11.10;99.90
59660;DHT22;45534;52.690;6.268;2024-01-25T13:15:00;10.70;99.90
59660;DHT22;45534;52.690;6.268;2024-01-25T13:17:25;10.40;99.90
59660;DHT22;45534;52.690;6.268;2024-01-25T13:19:53;10.10;99.90
59660;DHT22;45534;52.690;6.268;2024-01-25T13:22:19;9.90;99.90
59660;DHT22;45534;52.690;6.268;2024-01-25T13:24:46;9.70;99.90
59660;DHT22;45534;52.690;6.268;2024-01-25T13:27:12;9.60;99.90
59660;DHT22;45534;52.690;6.268;2024-01-25T13:29:38;9.60;99.90
59660;DHT22;45534;52.690;6.268;2024-01-25T13:32:04;9.50;99.90
59660;DHT22;45534;52.690;6.268;2024-01-25T13:34:30;9.40;99.90
59660;DHT22;45534;52.690;6.268;2024-01-25T13:36:55;9.40;99.90
59660;DHT22;45534;52.690;6.268;2024-01-25T13:39:21;9.40;99.90
59660;DHT22;45534;52.690;6.268;2024-01-25T13:41:47;9.40;99.90
59660;DHT22;45534;52.690;6.268;2024-01-25T13:44:14;9.40;99.90
59660;DHT22;45534;52.690;6.268;2024-01-25T13:46:40;9.40;99.90
59660;DHT22;45534;52.690;6.268;2024-01-25T13:49:05;9.30;99.90
59660;DHT22;45534;52.690;6.268;2024-01-25T13:51:31;9.30;99.90
59660;DHT22;45534;52.690;6.268;2024-01-25T13:53:57;9.30;99.90
59660;DHT22;45534;52.690;6.268;2024-01-25T13:56:22;9.30;99.90
59660;DHT22;45534;52.690;6.268;2024-01-25T13:58:48;9.20;99.90
59660;DHT22;45534;52.690;6.268;2024-01-25T14:01:14;9.20;99.90
59660;DHT22;45534;52.690;6.268;2024-01-25T14:03:39;9.20;99.90
59660;DHT22;45534;52.690;6.268;2024-01-25T14:06:05;9.20;99.90
59660;DHT22;45534;52.690;6.268;2024-01-25T14:08:37;9.20;99.90
59660;DHT22;45534;52.690;6.268;2024-01-25T14:11:04;9.20;99.90
59660;DHT22;45534;52.690;6.268;2024-01-25T14:13:31;9.20;99.90
59660;DHT22;45534;52.690;6.268;2024-01-25T14:15:57;9.00;99.90
59660;DHT22;45534;52.690;6.268;2024-01-25T14:18:26;9.00;99.90
59660;DHT22;45534;52.690;6.268;2024-01-25T14:20:52;8.90;99.90
59660;DHT22;45534;52.690;6.268;2024-01-25T14:23:18;8.80;99.90
59660;DHT22;45534;52.690;6.268;2024-01-25T14:25:43;8.70;99.90
59660;DHT22;45534;52.690;6.268;2024-01-25T14:28:10;8.70;99.90
59660;DHT22;45534;52.690;6.268;2024-01-25T14:30:36;8.60;99.90
59660;DHT22;45534;52.690;6.268;2024-01-25T14:33:02;8.50;99.90
59660;DHT22;45534;52.690;6.268;2024-01-25T14:35:29;8.50;99.90
59660;DHT22;45534;52.690;6.268;2024-01-25T14:37:55;8.50;99.90
59660;DHT22;45534;52.690;6.268;2024-01-25T14:40:22;8.40;99.90
59660;DHT22;45534;52.690;6.268;2024-01-25T14:42:48;8.40;99.90
59660;DHT22;45534;52.690;6.268;2024-01-25T14:45:14;8.40;99.90
59660;DHT22;45534;52.690;6.268;2024-01-25T14:47:39;8.40;99.90
59660;DHT22;45534;52.690;6.268;2024-01-25T14:50:06;8.30;99.90
59660;DHT22;45534;52.690;6.268;2024-01-25T14:52:32;8.30;99.90
59660;DHT22;45534;52.690;6.268;2024-01-25T14:55:03;8.30;99.90
59660;DHT22;45534;52.690;6.268;2024-01-25T14:57:30;8.30;99.90
59660;DHT22;45534;52.690;6.268;2024-01-25T14:59:56;8.30;99.90
59660;DHT22;45534;52.690;6.268;2024-01-25T15:02:21;8.30;99.90
59660;DHT22;45534;52.690;6.268;2024-01-25T15:04:47;8.30;99.90
59660;DHT22;45534;52.690;6.268;2024-01-25T15:07:13;8.30;99.90
59660;DHT22;45534;52.690;6.268;2024-01-25T15:09:42;8.30;99.90
59660;DHT22;45534;52.690;6.268;2024-01-25T15:12:08;8.20;99.90
59660;DHT22;45534;52.690;6.268;2024-01-25T15:14:34;8.20;99.90
59660;DHT22;45534;52.690;6.268;2024-01-25T15:17:00;8.20;99.90
59660;DHT22;45534;52.690;6.268;2024-01-25T15:19:25;8.20;99.90
59660;DHT22;45534;52.690;6.268;2024-01-25T15:21:51;8.20;99.90
59660;DHT22;45534;52.690;6.268;2024-01-25T15:24:17;8.20;99.90
59660;DHT22;45534;52.690;6.268;2024-01-25T15:26:43;8.20;99.90
59660;DHT22;45534;52.690;6.268;2024-01-25T15:29:09;8.10;99.90
59660;DHT22;45534;52.690;6.268;2024-01-25T15:31:34;8.10;99.90
59660;DHT22;45534;52.690;6.268;2024-01-25T15:34:00;8.10;99.90
59660;DHT22;45534;52.690;6.268;2024-01-25T15:36:26;8.10;99.90
59660;DHT22;45534;52.690;6.268;2024-01-25T15:38:52;8.10;99.90